Airfield :
LOGIN :

Register | Disclaimer

   EN    FR    IT 

 










Legend :    VFR   Marginal VFR   IFR   Intensive IFR   Very Intensive IFR
Visi :
Ceiling :
>= 8 km
>= 3000ft
5 to 8 km
1000 to 3000 ft
1500m to 5 km
500 to 1000 ft
800 to 1500m
200 to 500 ft
< 800m
< 200 ft
Symbols :   Thunderstorms  Fog  Heavy snow  Heavy precipitations  Wind > 20 kt
SIGMETs :     Misc.  Thunderstorms  Icing  Turbulence  Mountain Waves  Volcanic Ashes







- Airport Elevation : 622 ft
- IATA code : BRS
- Download approach charts


EGGD - Bristol Int.

CURRENT METAR :
  • 160820Z AUTO 21010KT 180V240 9999 BKN011 15/12 Q1014

EXPIRED METARs :
  • 160750Z AUTO 21010KT 180V240 9999 SCT008 BKN011 14/12 Q1014
  • 160720Z AUTO 21009KT 9999 SCT007/// BKN026/// BKN043/// //////TCU 13/12 Q1014
  • 160650Z AUTO 20007KT 170V230 9999 BKN004/// //////TCU 12/12 Q1013
  • 160620Z AUTO 20007KT 160V230 9999 -RA BKN003/// OVC008/// //////TCU 12/11 Q1013
  • 160550Z AUTO 16007KT 9999 -RA OVC004/// //////TCU 12/11 Q1013

TAF TAF EGGD
Valid from the 16 at 06:00 until the 17 at 06:00 UTC


160503Z 1606/1706 19010KT 9999 FEW010
TEMPO 1606/1609 6000 RA BKN003
TEMPO 1609/1620 20015G25KT 7000 SHRA BKN012
TEMPO 1620/1706 BKN006
ATIS : +44 1275 473 666
No reported NOTAMs for that airfield.



MET'MAP, your aeronautical weather chart ! - Copyright ORBIFLY December 2007 - Disclaimer

ORBIFLY MET'MAP TEAM :

Programming & Development : Alexandra Zaïnal
Concept & Development : Baudouin d'Aumeries
Co-Development & Prog : Marc-Olivier Méhu
Technical & hardware support : Manuel Goepfert

Contact : metmap@orbifly.com




SOURCES & CREDITS :

   NOAA